sensor_id;sensor_type;location;lat;lon;timestamp;pressure;altitude;pressure_sealevel;temperature;humidity
73103;BME280;61294;65.988;29.172;2022-12-15T00:02:19;96061.66;;;-14.21;96.97
73103;BME280;61294;65.988;29.172;2022-12-15T00:05:04;96066.66;;;-14.23;96.74
73103;BME280;61294;65.988;29.172;2022-12-15T00:07:48;96047.88;;;-14.28;96.61
73103;BME280;61294;65.988;29.172;2022-12-15T00:10:32;96031.06;;;-14.44;96.50
73103;BME280;61294;65.988;29.172;2022-12-15T00:13:16;96063.84;;;-14.29;96.43
73103;BME280;61294;65.988;29.172;2022-12-15T00:16:01;96067.28;;;-14.27;96.76
73103;BME280;61294;65.988;29.172;2022-12-15T00:18:45;96081.03;;;-14.21;96.93
73103;BME280;61294;65.988;29.172;2022-12-15T00:21:29;96076.00;;;-14.21;96.85
73103;BME280;61294;65.988;29.172;2022-12-15T00:24:13;96066.88;;;-14.18;97.08
73103;BME280;61294;65.988;29.172;2022-12-15T00:26:58;96064.75;;;-14.27;96.56
73103;BME280;61294;65.988;29.172;2022-12-15T00:29:42;96064.53;;;-14.31;96.87
73103;BME280;61294;65.988;29.172;2022-12-15T00:32:26;96074.72;;;-14.30;96.82
73103;BME280;61294;65.988;29.172;2022-12-15T00:35:09;96077.41;;;-14.27;96.71
73103;BME280;61294;65.988;29.172;2022-12-15T00:37:53;96081.81;;;-14.23;96.87
73103;BME280;61294;65.988;29.172;2022-12-15T00:40:37;96060.59;;;-14.26;97.02
73103;BME280;61294;65.988;29.172;2022-12-15T00:43:03;96073.94;;;-14.29;96.55
73103;BME280;61294;65.988;29.172;2022-12-15T00:45:28;96016.81;;;-14.60;96.98
73103;BME280;61294;65.988;29.172;2022-12-15T00:48:12;96064.91;;;-14.42;96.59
73103;BME280;61294;65.988;29.172;2022-12-15T00:50:38;96069.00;;;-14.44;96.80
73103;BME280;61294;65.988;29.172;2022-12-15T00:53:24;96066.84;;;-14.36;96.60
73103;BME280;61294;65.988;29.172;2022-12-15T00:56:08;96049.66;;;-14.43;96.72
73103;BME280;61294;65.988;29.172;2022-12-15T00:58:53;96060.06;;;-14.37;96.76
73103;BME280;61294;65.988;29.172;2022-12-15T01:01:38;96059.97;;;-14.38;96.71
73103;BME280;61294;65.988;29.172;2022-12-15T01:04:23;96068.44;;;-14.38;96.74
73103;BME280;61294;65.988;29.172;2022-12-15T01:07:07;96059.75;;;-14.43;96.79
73103;BME280;61294;65.988;29.172;2022-12-15T01:09:50;96069.56;;;-14.49;96.69
73103;BME280;61294;65.988;29.172;2022-12-15T01:12:34;96081.41;;;-14.48;96.33
73103;BME280;61294;65.988;29.172;2022-12-15T01:15:18;96076.03;;;-14.72;95.79
73103;BME280;61294;65.988;29.172;2022-12-15T01:18:03;96074.03;;;-14.62;96.13
73103;BME280;61294;65.988;29.172;2022-12-15T01:20:58;96074.34;;;-14.72;95.61
73103;BME280;61294;65.988;29.172;2022-12-15T01:23:24;96078.06;;;-14.65;95.96
73103;BME280;61294;65.988;29.172;2022-12-15T01:25:51;96063.22;;;-14.76;95.83
73103;BME280;61294;65.988;29.172;2022-12-15T01:28:18;96061.41;;;-14.78;95.80
73103;BME280;61294;65.988;29.172;2022-12-15T01:30:44;96052.16;;;-14.78;96.20
73103;BME280;61294;65.988;29.172;2022-12-15T01:33:10;96051.47;;;-14.75;96.17
73103;BME280;61294;65.988;29.172;2022-12-15T01:35:37;96044.34;;;-14.82;96.04
73103;BME280;61294;65.988;29.172;2022-12-15T01:38:03;96066.09;;;-15.02;94.91
73103;BME280;61294;65.988;29.172;2022-12-15T01:40:29;96069.25;;;-14.90;95.19
73103;BME280;61294;65.988;29.172;2022-12-15T01:43:16;96077.06;;;-14.85;95.40
73103;BME280;61294;65.988;29.172;2022-12-15T01:46:01;96073.34;;;-14.92;95.42
73103;BME280;61294;65.988;29.172;2022-12-15T01:48:32;96087.94;;;-14.86;95.41
73103;BME280;61294;65.988;29.172;2022-12-15T01:53:34;96094.28;;;-14.95;95.08
73103;BME280;61294;65.988;29.172;2022-12-15T01:56:04;96088.50;;;-15.08;94.76
73103;BME280;61294;65.988;29.172;2022-12-15T01:58:30;96089.28;;;-15.09;94.65
73103;BME280;61294;65.988;29.172;2022-12-15T02:00:57;96072.06;;;-15.17;94.45
73103;BME280;61294;65.988;29.172;2022-12-15T02:03:23;96088.44;;;-15.10;94.68
73103;BME280;61294;65.988;29.172;2022-12-15T02:05:49;96069.72;;;-15.30;94.13
73103;BME280;61294;65.988;29.172;2022-12-15T02:08:15;96077.66;;;-15.22;94.64
73103;BME280;61294;65.988;29.172;2022-12-15T02:11:01;96071.63;;;-15.26;94.77
73103;BME280;61294;65.988;29.172;2022-12-15T02:13:54;96081.41;;;-15.16;94.85
73103;BME280;61294;65.988;29.172;2022-12-15T02:16:36;96076.44;;;-15.14;94.77
73103;BME280;61294;65.988;29.172;2022-12-15T02:25:21;96089.84;;;-15.15;95.06
73103;BME280;61294;65.988;29.172;2022-12-15T02:28:05;96091.34;;;-15.19;94.81
73103;BME280;61294;65.988;29.172;2022-12-15T02:38:11;96091.00;;;-15.25;94.70
73103;BME280;61294;65.988;29.172;2022-12-15T02:40:36;96092.44;;;-15.30;94.99
73103;BME280;61294;65.988;29.172;2022-12-15T02:43:04;96077.94;;;-15.49;94.30
73103;BME280;61294;65.988;29.172;2022-12-15T02:45:39;96077.47;;;-15.58;94.07
73103;BME280;61294;65.988;29.172;2022-12-15T02:48:36;96083.91;;;-15.64;93.95
73103;BME280;61294;65.988;29.172;2022-12-15T02:51:17;96072.53;;;-15.72;94.16
73103;BME280;61294;65.988;29.172;2022-12-15T02:53:56;96075.13;;;-15.87;93.70
73103;BME280;61294;65.988;29.172;2022-12-15T02:56:33;96079.84;;;-15.93;93.71
73103;BME280;61294;65.988;29.172;2022-12-15T03:01:50;96095.94;;;-16.06;93.54
73103;BME280;61294;65.988;29.172;2022-12-15T03:04:18;96097.00;;;-16.17;93.28
73103;BME280;61294;65.988;29.172;2022-12-15T03:06:44;96098.88;;;-16.28;93.10
73103;BME280;61294;65.988;29.172;2022-12-15T03:09:10;96107.16;;;-16.30;93.39
73103;BME280;61294;65.988;29.172;2022-12-15T03:11:36;96103.81;;;-16.44;92.66
73103;BME280;61294;65.988;29.172;2022-12-15T03:14:02;96102.25;;;-16.57;92.38
73103;BME280;61294;65.988;29.172;2022-12-15T03:16:28;96093.09;;;-16.70;92.92
73103;BME280;61294;65.988;29.172;2022-12-15T03:18:54;96060.22;;;-16.88;92.54
73103;BME280;61294;65.988;29.172;2022-12-15T03:21:20;96102.75;;;-16.78;92.56
73103;BME280;61294;65.988;29.172;2022-12-15T03:23:45;96077.56;;;-16.93;92.95
73103;BME280;61294;65.988;29.172;2022-12-15T03:26:11;96109.25;;;-16.81;92.76
73103;BME280;61294;65.988;29.172;2022-12-15T03:28:37;96119.06;;;-17.01;92.37
73103;BME280;61294;65.988;29.172;2022-12-15T03:31:03;96092.47;;;-17.11;92.39
73103;BME280;61294;65.988;29.172;2022-12-15T03:33:28;96113.09;;;-17.16;92.11
73103;BME280;61294;65.988;29.172;2022-12-15T03:35:54;96116.78;;;-17.25;92.17
73103;BME280;61294;65.988;29.172;2022-12-15T03:38:20;96128.69;;;-17.22;92.33
73103;BME280;61294;65.988;29.172;2022-12-15T03:40:46;96126.81;;;-17.40;91.77
73103;BME280;61294;65.988;29.172;2022-12-15T03:43:11;96120.78;;;-17.42;92.16
73103;BME280;61294;65.988;29.172;2022-12-15T03:45:37;96129.50;;;-17.50;91.93
73103;BME280;61294;65.988;29.172;2022-12-15T03:48:03;96132.44;;;-17.57;91.99
73103;BME280;61294;65.988;29.172;2022-12-15T03:50:29;96124.50;;;-17.63;91.89
73103;BME280;61294;65.988;29.172;2022-12-15T03:52:58;96139.59;;;-17.63;91.88
73103;BME280;61294;65.988;29.172;2022-12-15T03:55:25;96135.81;;;-17.70;91.70
73103;BME280;61294;65.988;29.172;2022-12-15T03:57:53;96139.41;;;-17.66;91.96
73103;BME280;61294;65.988;29.172;2022-12-15T04:00:20;96128.09;;;-17.86;91.37
73103;BME280;61294;65.988;29.172;2022-12-15T04:02:47;96122.72;;;-17.93;91.52
73103;BME280;61294;65.988;29.172;2022-12-15T04:05:25;96117.13;;;-18.02;91.27
73103;BME280;61294;65.988;29.172;2022-12-15T04:07:52;96086.94;;;-18.15;91.14
73103;BME280;61294;65.988;29.172;2022-12-15T04:10:18;96126.50;;;-17.99;91.21
73103;BME280;61294;65.988;29.172;2022-12-15T04:12:44;96137.59;;;-18.09;91.28
73103;BME280;61294;65.988;29.172;2022-12-15T04:15:10;96138.47;;;-18.09;91.32
73103;BME280;61294;65.988;29.172;2022-12-15T04:17:37;96149.88;;;-18.14;90.72
73103;BME280;61294;65.988;29.172;2022-12-15T04:20:04;96136.03;;;-18.20;90.75
73103;BME280;61294;65.988;29.172;2022-12-15T04:22:40;96134.88;;;-18.26;90.54
73103;BME280;61294;65.988;29.172;2022-12-15T04:25:08;96092.56;;;-18.58;90.52
73103;BME280;61294;65.988;29.172;2022-12-15T04:27:53;96103.53;;;-18.44;90.60
73103;BME280;61294;65.988;29.172;2022-12-15T04:30:38;96109.34;;;-18.45;90.47
73103;BME280;61294;65.988;29.172;2022-12-15T04:33:24;96121.53;;;-18.38;90.43
73103;BME280;61294;65.988;29.172;2022-12-15T04:36:09;96117.66;;;-18.46;90.48
73103;BME280;61294;65.988;29.172;2022-12-15T04:38:55;96123.72;;;-18.43;90.33
73103;BME280;61294;65.988;29.172;2022-12-15T04:41:40;96098.41;;;-18.59;89.76
73103;BME280;61294;65.988;29.172;2022-12-15T04:44:24;96104.56;;;-18.67;89.77
73103;BME280;61294;65.988;29.172;2022-12-15T04:47:09;96119.81;;;-18.64;89.73
73103;BME280;61294;65.988;29.172;2022-12-15T04:49:52;96115.19;;;-18.58;90.00
73103;BME280;61294;65.988;29.172;2022-12-15T04:52:36;96130.09;;;-18.48;89.78
73103;BME280;61294;65.988;29.172;2022-12-15T04:55:20;96130.03;;;-18.36;89.67
73103;BME280;61294;65.988;29.172;2022-12-15T04:58:08;96131.94;;;-18.45;89.25
73103;BME280;61294;65.988;29.172;2022-12-15T05:00:55;96122.69;;;-18.33;89.27
73103;BME280;61294;65.988;29.172;2022-12-15T05:03:40;96132.16;;;-18.42;88.58
73103;BME280;61294;65.988;29.172;2022-12-15T05:06:24;96108.25;;;-18.62;88.19
73103;BME280;61294;65.988;29.172;2022-12-15T05:09:08;96121.41;;;-18.39;88.70
73103;BME280;61294;65.988;29.172;2022-12-15T05:11:52;96126.75;;;-18.35;88.63
73103;BME280;61294;65.988;29.172;2022-12-15T05:14:37;96143.59;;;-18.20;88.95
73103;BME280;61294;65.988;29.172;2022-12-15T05:17:21;96127.91;;;-18.30;88.84
73103;BME280;61294;65.988;29.172;2022-12-15T05:20:05;96127.34;;;-18.12;89.09
73103;BME280;61294;65.988;29.172;2022-12-15T05:22:55;96112.94;;;-18.15;89.06
73103;BME280;61294;65.988;29.172;2022-12-15T05:25:43;96111.91;;;-18.05;89.31
73103;BME280;61294;65.988;29.172;2022-12-15T05:28:27;96123.09;;;-18.00;89.67
73103;BME280;61294;65.988;29.172;2022-12-15T05:31:12;96127.44;;;-17.97;89.30
73103;BME280;61294;65.988;29.172;2022-12-15T05:33:57;96143.63;;;-17.94;89.29
73103;BME280;61294;65.988;29.172;2022-12-15T05:36:23;96142.22;;;-17.89;89.68
73103;BME280;61294;65.988;29.172;2022-12-15T05:38:50;96132.00;;;-17.92;89.52
73103;BME280;61294;65.988;29.172;2022-12-15T05:41:18;96092.56;;;-18.06;89.70
73103;BME280;61294;65.988;29.172;2022-12-15T05:43:44;96129.72;;;-17.87;89.56
73103;BME280;61294;65.988;29.172;2022-12-15T05:46:10;96141.72;;;-17.83;89.58
73103;BME280;61294;65.988;29.172;2022-12-15T05:48:36;96141.34;;;-17.89;89.67
73103;BME280;61294;65.988;29.172;2022-12-15T05:51:06;96128.13;;;-18.00;89.92
73103;BME280;61294;65.988;29.172;2022-12-15T05:53:35;96150.63;;;-17.88;89.71
73103;BME280;61294;65.988;29.172;2022-12-15T05:56:06;96146.94;;;-17.80;89.98
73103;BME280;61294;65.988;29.172;2022-12-15T05:58:32;96142.13;;;-17.77;90.45
73103;BME280;61294;65.988;29.172;2022-12-15T06:01:15;96139.78;;;-17.87;89.80
73103;BME280;61294;65.988;29.172;2022-12-15T06:03:41;96149.78;;;-17.75;90.10
73103;BME280;61294;65.988;29.172;2022-12-15T06:06:08;96146.94;;;-17.80;89.86
73103;BME280;61294;65.988;29.172;2022-12-15T06:08:36;96163.41;;;-17.85;89.90
73103;BME280;61294;65.988;29.172;2022-12-15T06:11:03;96165.25;;;-17.82;90.38
73103;BME280;61294;65.988;29.172;2022-12-15T06:13:29;96146.47;;;-17.74;90.54
73103;BME280;61294;65.988;29.172;2022-12-15T06:16:01;96141.44;;;-17.61;91.14
73103;BME280;61294;65.988;29.172;2022-12-15T06:18:32;96155.00;;;-17.72;90.62
73103;BME280;61294;65.988;29.172;2022-12-15T06:21:01;96170.16;;;-17.84;90.15
73103;BME280;61294;65.988;29.172;2022-12-15T06:23:27;96176.53;;;-17.76;90.84
73103;BME280;61294;65.988;29.172;2022-12-15T06:25:54;96176.72;;;-17.73;90.91
73103;BME280;61294;65.988;29.172;2022-12-15T06:28:21;96124.47;;;-17.92;91.02
73103;BME280;61294;65.988;29.172;2022-12-15T06:31:00;96159.13;;;-17.73;91.23
73103;BME280;61294;65.988;29.172;2022-12-15T06:33:28;96177.22;;;-17.65;91.12
73103;BME280;61294;65.988;29.172;2022-12-15T06:35:54;96168.84;;;-17.65;91.47
73103;BME280;61294;65.988;29.172;2022-12-15T06:38:20;96138.06;;;-18.15;90.78
73103;BME280;61294;65.988;29.172;2022-12-15T06:41:12;96162.03;;;-17.80;91.61
73103;BME280;61294;65.988;29.172;2022-12-15T06:43:38;96174.81;;;-17.77;91.58
73103;BME280;61294;65.988;29.172;2022-12-15T06:46:04;96190.06;;;-17.87;91.22
73103;BME280;61294;65.988;29.172;2022-12-15T06:48:30;96188.94;;;-17.79;91.23
73103;BME280;61294;65.988;29.172;2022-12-15T06:50:56;96170.84;;;-17.86;91.23
73103;BME280;61294;65.988;29.172;2022-12-15T06:53:26;96135.38;;;-18.04;91.19
73103;BME280;61294;65.988;29.172;2022-12-15T06:55:52;96185.28;;;-17.97;91.40
73103;BME280;61294;65.988;29.172;2022-12-15T06:58:17;96178.09;;;-18.04;90.83
73103;BME280;61294;65.988;29.172;2022-12-15T07:00:44;96195.00;;;-18.15;90.78
73103;BME280;61294;65.988;29.172;2022-12-15T07:03:18;96201.59;;;-18.04;91.13
73103;BME280;61294;65.988;29.172;2022-12-15T07:05:45;96156.00;;;-18.35;90.75
73103;BME280;61294;65.988;29.172;2022-12-15T07:08:12;96203.13;;;-18.19;90.99
73103;BME280;61294;65.988;29.172;2022-12-15T07:10:39;96184.06;;;-18.16;90.98
73103;BME280;61294;65.988;29.172;2022-12-15T07:13:08;96185.59;;;-18.31;90.93
73103;BME280;61294;65.988;29.172;2022-12-15T07:15:34;96176.19;;;-18.34;90.92
73103;BME280;61294;65.988;29.172;2022-12-15T07:17:59;96203.38;;;-18.28;90.95
73103;BME280;61294;65.988;29.172;2022-12-15T07:20:26;96213.41;;;-18.28;91.08
73103;BME280;61294;65.988;29.172;2022-12-15T07:22:51;96206.34;;;-18.34;90.56
73103;BME280;61294;65.988;29.172;2022-12-15T07:25:18;96229.56;;;-18.38;90.87
73103;BME280;61294;65.988;29.172;2022-12-15T07:27:44;96207.06;;;-18.48;90.59
73103;BME280;61294;65.988;29.172;2022-12-15T07:30:11;96233.66;;;-18.27;90.85
73103;BME280;61294;65.988;29.172;2022-12-15T07:32:37;96236.94;;;-18.28;91.12
73103;BME280;61294;65.988;29.172;2022-12-15T07:35:03;96242.34;;;-18.21;90.95
73103;BME280;61294;65.988;29.172;2022-12-15T07:37:30;96244.03;;;-18.09;90.96
73103;BME280;61294;65.988;29.172;2022-12-15T07:39:56;96247.19;;;-18.11;91.04
73103;BME280;61294;65.988;29.172;2022-12-15T07:42:22;96245.88;;;-18.06;90.94
73103;BME280;61294;65.988;29.172;2022-12-15T07:44:48;96233.16;;;-18.21;90.65
73103;BME280;61294;65.988;29.172;2022-12-15T07:47:14;96243.63;;;-18.15;90.78
73103;BME280;61294;65.988;29.172;2022-12-15T07:49:40;96249.88;;;-18.21;90.46
73103;BME280;61294;65.988;29.172;2022-12-15T07:52:05;96228.56;;;-18.40;90.74
73103;BME280;61294;65.988;29.172;2022-12-15T07:54:31;96212.53;;;-18.42;90.57
73103;BME280;61294;65.988;29.172;2022-12-15T07:56:57;96249.19;;;-18.32;90.18
73103;BME280;61294;65.988;29.172;2022-12-15T07:59:25;96232.84;;;-18.26;90.55
73103;BME280;61294;65.988;29.172;2022-12-15T08:01:51;96254.06;;;-18.22;90.84
73103;BME280;61294;65.988;29.172;2022-12-15T08:04:17;96255.38;;;-18.27;90.49
73103;BME280;61294;65.988;29.172;2022-12-15T08:06:43;96241.66;;;-18.32;90.61
73103;BME280;61294;65.988;29.172;2022-12-15T08:09:09;96253.38;;;-18.19;90.65
73103;BME280;61294;65.988;29.172;2022-12-15T08:11:35;96225.78;;;-18.31;90.63
73103;BME280;61294;65.988;29.172;2022-12-15T08:14:01;96241.28;;;-18.25;90.36
73103;BME280;61294;65.988;29.172;2022-12-15T08:16:27;96223.84;;;-18.35;90.39
73103;BME280;61294;65.988;29.172;2022-12-15T08:18:53;96243.94;;;-18.35;90.01
73103;BME280;61294;65.988;29.172;2022-12-15T08:21:21;96251.81;;;-18.31;90.22
73103;BME280;61294;65.988;29.172;2022-12-15T08:23:47;96222.81;;;-18.26;90.44
73103;BME280;61294;65.988;29.172;2022-12-15T08:26:15;96252.31;;;-18.10;90.42
73103;BME280;61294;65.988;29.172;2022-12-15T08:28:42;96248.22;;;-18.21;90.23
73103;BME280;61294;65.988;29.172;2022-12-15T08:31:17;96257.59;;;-18.07;90.35
73103;BME280;61294;65.988;29.172;2022-12-15T08:33:44;96254.06;;;-18.09;90.45
73103;BME280;61294;65.988;29.172;2022-12-15T08:36:12;96248.00;;;-18.12;90.28
73103;BME280;61294;65.988;29.172;2022-12-15T08:38:39;96246.03;;;-18.16;90.16
73103;BME280;61294;65.988;29.172;2022-12-15T08:41:32;96197.94;;;-18.34;90.18
73103;BME280;61294;65.988;29.172;2022-12-15T08:43:59;96250.72;;;-17.96;90.78
73103;BME280;61294;65.988;29.172;2022-12-15T08:46:32;96251.19;;;-18.01;90.56
73103;BME280;61294;65.988;29.172;2022-12-15T08:48:59;96264.38;;;-17.92;90.50
73103;BME280;61294;65.988;29.172;2022-12-15T08:51:28;96264.75;;;-17.86;90.49
73103;BME280;61294;65.988;29.172;2022-12-15T08:53:55;96259.91;;;-17.83;90.90
73103;BME280;61294;65.988;29.172;2022-12-15T08:56:22;96255.53;;;-17.85;90.56
73103;BME280;61294;65.988;29.172;2022-12-15T08:58:52;96256.81;;;-17.79;90.78
73103;BME280;61294;65.988;29.172;2022-12-15T09:01:21;96256.72;;;-17.67;90.98
73103;BME280;61294;65.988;29.172;2022-12-15T09:03:47;96251.31;;;-17.73;90.96
73103;BME280;61294;65.988;29.172;2022-12-15T09:06:19;96245.91;;;-17.93;90.57
73103;BME280;61294;65.988;29.172;2022-12-15T09:08:46;96234.03;;;-17.95;90.25
73103;BME280;61294;65.988;29.172;2022-12-15T09:11:12;96259.34;;;-17.92;90.44
73103;BME280;61294;65.988;29.172;2022-12-15T09:13:38;96266.28;;;-18.01;90.40
73103;BME280;61294;65.988;29.172;2022-12-15T09:16:07;96269.56;;;-18.02;90.47
73103;BME280;61294;65.988;29.172;2022-12-15T09:18:33;96280.97;;;-18.08;90.51
73103;BME280;61294;65.988;29.172;2022-12-15T09:21:01;96267.22;;;-18.13;90.64
73103;BME280;61294;65.988;29.172;2022-12-15T09:23:29;96273.22;;;-18.11;90.70
73103;BME280;61294;65.988;29.172;2022-12-15T09:26:07;96268.19;;;-18.11;90.60
73103;BME280;61294;65.988;29.172;2022-12-15T09:28:33;96262.38;;;-18.10;90.47
73103;BME280;61294;65.988;29.172;2022-12-15T09:31:04;96260.00;;;-18.08;90.67
73103;BME280;61294;65.988;29.172;2022-12-15T09:33:30;96256.97;;;-18.16;90.43
73103;BME280;61294;65.988;29.172;2022-12-15T09:35:56;96242.44;;;-18.20;90.78
73103;BME280;61294;65.988;29.172;2022-12-15T09:38:22;96265.63;;;-18.24;90.36
73103;BME280;61294;65.988;29.172;2022-12-15T09:40:47;96251.56;;;-18.34;90.29
73103;BME280;61294;65.988;29.172;2022-12-15T09:43:18;96253.59;;;-18.42;90.43
73103;BME280;61294;65.988;29.172;2022-12-15T09:45:49;96251.16;;;-18.40;90.25
73103;BME280;61294;65.988;29.172;2022-12-15T09:48:19;96256.00;;;-18.43;90.19
73103;BME280;61294;65.988;29.172;2022-12-15T09:50:47;96238.97;;;-18.47;90.14
73103;BME280;61294;65.988;29.172;2022-12-15T09:53:16;96229.09;;;-18.57;90.10
73103;BME280;61294;65.988;29.172;2022-12-15T09:55:46;96241.19;;;-18.52;90.31
73103;BME280;61294;65.988;29.172;2022-12-15T10:04:21;96255.22;;;-18.67;89.89
73103;BME280;61294;65.988;29.172;2022-12-15T10:07:06;96231.22;;;-18.76;89.71
73103;BME280;61294;65.988;29.172;2022-12-15T10:09:33;96254.66;;;-18.63;89.67
73103;BME280;61294;65.988;29.172;2022-12-15T10:12:06;96237.63;;;-18.67;89.62
73103;BME280;61294;65.988;29.172;2022-12-15T10:17:41;96228.50;;;-18.79;89.55
73103;BME280;61294;65.988;29.172;2022-12-15T10:22:46;96253.91;;;-18.62;89.40
73103;BME280;61294;65.988;29.172;2022-12-15T10:25:20;96258.22;;;-18.60;89.38
73103;BME280;61294;65.988;29.172;2022-12-15T10:30:34;96241.44;;;-18.61;89.10
73103;BME280;61294;65.988;29.172;2022-12-15T10:35:40;96240.06;;;-18.44;89.69
73103;BME280;61294;65.988;29.172;2022-12-15T10:40:50;96247.78;;;-18.40;89.46
73103;BME280;61294;65.988;29.172;2022-12-15T10:46:01;96244.81;;;-18.35;89.47
73103;BME280;61294;65.988;29.172;2022-12-15T10:48:28;96213.00;;;-18.48;90.12
73103;BME280;61294;65.988;29.172;2022-12-15T10:51:13;96231.91;;;-18.28;90.13
73103;BME280;61294;65.988;29.172;2022-12-15T10:53:43;96254.22;;;-18.32;90.00
73103;BME280;61294;65.988;29.172;2022-12-15T10:56:27;96248.22;;;-18.21;90.13
73103;BME280;61294;65.988;29.172;2022-12-15T10:58:58;96231.16;;;-18.38;89.75
73103;BME280;61294;65.988;29.172;2022-12-15T11:01:26;96230.59;;;-18.34;90.08
73103;BME280;61294;65.988;29.172;2022-12-15T11:03:53;96248.13;;;-18.22;90.08
73103;BME280;61294;65.988;29.172;2022-12-15T11:06:30;96247.19;;;-18.11;90.33
73103;BME280;61294;65.988;29.172;2022-12-15T11:09:07;96228.56;;;-18.01;90.36
73103;BME280;61294;65.988;29.172;2022-12-15T11:11:44;96245.22;;;-18.03;90.56
73103;BME280;61294;65.988;29.172;2022-12-15T11:14:46;96222.59;;;-18.03;91.14
73103;BME280;61294;65.988;29.172;2022-12-15T11:17:21;96235.06;;;-17.78;91.18
73103;BME280;61294;65.988;29.172;2022-12-15T11:19:57;96236.03;;;-17.76;91.44
73103;BME280;61294;65.988;29.172;2022-12-15T11:22:38;96204.09;;;-17.77;91.37
73103;BME280;61294;65.988;29.172;2022-12-15T11:27:48;96214.56;;;-17.58;92.51
73103;BME280;61294;65.988;29.172;2022-12-15T11:30:36;96229.47;;;-17.47;92.17
73103;BME280;61294;65.988;29.172;2022-12-15T11:33:03;96235.50;;;-17.45;92.05
73103;BME280;61294;65.988;29.172;2022-12-15T11:46:26;96204.50;;;-17.31;93.00
73103;BME280;61294;65.988;29.172;2022-12-15T11:49:27;96187.34;;;-17.23;93.56
73103;BME280;61294;65.988;29.172;2022-12-15T11:52:02;96188.22;;;-17.23;93.35
73103;BME280;61294;65.988;29.172;2022-12-15T11:54:58;96174.97;;;-17.20;93.70
73103;BME280;61294;65.988;29.172;2022-12-15T11:57:42;96175.13;;;-17.17;93.38
73103;BME280;61294;65.988;29.172;2022-12-15T12:00:18;96121.38;;;-17.32;93.65
73103;BME280;61294;65.988;29.172;2022-12-15T12:02:48;96145.91;;;-17.15;93.94
73103;BME280;61294;65.988;29.172;2022-12-15T12:05:41;96132.75;;;-17.11;94.26
73103;BME280;61294;65.988;29.172;2022-12-15T12:10:53;96130.00;;;-17.00;94.13
73103;BME280;61294;65.988;29.172;2022-12-15T12:13:44;96152.56;;;-16.87;94.55
73103;BME280;61294;65.988;29.172;2022-12-15T12:19:03;96127.22;;;-16.90;94.61
73103;BME280;61294;65.988;29.172;2022-12-15T12:21:40;96137.16;;;-16.78;94.57
73103;BME280;61294;65.988;29.172;2022-12-15T12:24:35;96130.47;;;-16.78;94.86
73103;BME280;61294;65.988;29.172;2022-12-15T12:27:10;96134.31;;;-16.70;94.88
73103;BME280;61294;65.988;29.172;2022-12-15T12:29:45;96137.94;;;-16.64;94.74
73103;BME280;61294;65.988;29.172;2022-12-15T12:33:08;96133.38;;;-16.57;95.19
73103;BME280;61294;65.988;29.172;2022-12-15T12:35:15;96099.66;;;-16.59;95.72
73103;BME280;61294;65.988;29.172;2022-12-15T12:37:51;96131.66;;;-16.43;95.85
73103;BME280;61294;65.988;29.172;2022-12-15T12:42:55;96114.44;;;-16.35;96.61
73103;BME280;61294;65.988;29.172;2022-12-15T12:48:28;96132.53;;;-16.12;96.94
73103;BME280;61294;65.988;29.172;2022-12-15T12:51:22;96124.47;;;-16.07;97.34
73103;BME280;61294;65.988;29.172;2022-12-15T12:53:49;96128.16;;;-16.00;97.43
73103;BME280;61294;65.988;29.172;2022-12-15T12:56:48;96117.38;;;-15.98;97.60
73103;BME280;61294;65.988;29.172;2022-12-15T13:07:03;96129.84;;;-15.69;98.39
73103;BME280;61294;65.988;29.172;2022-12-15T13:09:41;96086.97;;;-15.86;98.29
73103;BME280;61294;65.988;29.172;2022-12-15T13:12:33;96127.41;;;-15.53;98.52
73103;BME280;61294;65.988;29.172;2022-12-15T13:18:12;96097.41;;;-15.63;98.65
73103;BME280;61294;65.988;29.172;2022-12-15T13:20:40;96119.91;;;-15.51;98.73
73103;BME280;61294;65.988;29.172;2022-12-15T13:25:52;96118.31;;;-15.49;99.00
73103;BME280;61294;65.988;29.172;2022-12-15T13:36:41;96115.41;;;-15.25;99.44
73103;BME280;61294;65.988;29.172;2022-12-15T13:41:42;96117.13;;;-15.24;99.52
73103;BME280;61294;65.988;29.172;2022-12-15T13:44:19;96117.13;;;-15.24;99.42
73103;BME280;61294;65.988;29.172;2022-12-15T13:46:53;96130.00;;;-15.03;99.89
73103;BME280;61294;65.988;29.172;2022-12-15T13:49:45;96131.75;;;-15.02;99.71
73103;BME280;61294;65.988;29.172;2022-12-15T13:52:20;96134.69;;;-14.95;99.93
73103;BME280;61294;65.988;29.172;2022-12-15T13:54:56;96125.31;;;-14.97;100.00
73103;BME280;61294;65.988;29.172;2022-12-15T13:57:24;96119.69;;;-14.91;100.00
73103;BME280;61294;65.988;29.172;2022-12-15T13:59:56;96127.53;;;-14.70;100.00
73103;BME280;61294;65.988;29.172;2022-12-15T14:07:41;96136.91;;;-14.68;100.00
73103;BME280;61294;65.988;29.172;2022-12-15T14:10:21;96130.06;;;-14.70;100.00
73103;BME280;61294;65.988;29.172;2022-12-15T14:12:49;96137.59;;;-14.54;100.00
73103;BME280;61294;65.988;29.172;2022-12-15T14:15:18;96141.16;;;-14.50;100.00
73103;BME280;61294;65.988;29.172;2022-12-15T14:17:50;96137.88;;;-14.48;100.00
73103;BME280;61294;65.988;29.172;2022-12-15T14:20:26;96143.84;;;-14.47;100.00
73103;BME280;61294;65.988;29.172;2022-12-15T14:22:52;96150.78;;;-14.43;100.00
73103;BME280;61294;65.988;29.172;2022-12-15T14:25:37;96152.34;;;-14.45;100.00
73103;BME280;61294;65.988;29.172;2022-12-15T14:28:03;96112.22;;;-14.55;100.00
73103;BME280;61294;65.988;29.172;2022-12-15T14:30:47;96132.59;;;-14.52;100.00
73103;BME280;61294;65.988;29.172;2022-12-15T14:33:15;96120.66;;;-14.38;100.00
73103;BME280;61294;65.988;29.172;2022-12-15T14:35:52;96160.09;;;-14.26;100.00
73103;BME280;61294;65.988;29.172;2022-12-15T14:38:27;96166.25;;;-14.20;100.00
73103;BME280;61294;65.988;29.172;2022-12-15T14:41:00;96153.75;;;-14.17;100.00
73103;BME280;61294;65.988;29.172;2022-12-15T14:43:30;96165.78;;;-14.13;100.00
73103;BME280;61294;65.988;29.172;2022-12-15T14:46:09;96156.91;;;-14.21;100.00
73103;BME280;61294;65.988;29.172;2022-12-15T14:48:38;96138.66;;;-14.32;100.00